Time;durP1;ratioP1;P1;durP2;ratioP2;P2;SDS_P1;SDS_P2;PMS_P1;PMS_P2;Temp;Humidity;BMP_temperature;BMP_pressure;BME280_temperature;BME280_humidity;BME280_pressure;Samples;Min_cycle;Max_cycle;Signal;HPM_P1;HPM_P2
2023/12/14 00:02:00;;;;;;;15.20;7.38;;;;;;;-142.91;100.00;56616.03;5092714;28;20253;-74
2023/12/14 00:04:27;;;;;;;14.75;7.88;;;;;;;-142.91;100.00;56616.03;5092655;28;20233;-74
2023/12/14 00:06:53;;;;;;;9.98;7.05;;;;;;;-142.91;100.00;56616.03;5091171;28;20288;-74
2023/12/14 00:09:20;;;;;;;8.50;7.28;;;;;;;-142.91;100.00;56616.03;5088593;28;20297;-74
2023/12/14 00:11:46;;;;;;;14.27;7.88;;;;;;;-142.91;100.00;56616.03;5091961;28;20264;-74
2023/12/14 00:14:13;;;;;;;10.57;7.78;;;;;;;;;;5093844;28;20233;-75
2023/12/14 00:16:41;;;;;;;10.93;7.65;;;;;;;-142.91;100.00;56616.03;5103733;28;20734;-74
2023/12/14 00:19:07;;;;;;;11.90;8.02;;;;;;;-142.91;100.00;56616.03;5091981;28;20265;-74
2023/12/14 00:21:34;;;;;;;10.30;8.05;;;;;;;-142.91;100.00;56616.03;5092533;28;20206;-74
2023/12/14 00:24:01;;;;;;;9.23;7.38;;;;;;;-142.91;100.00;56616.03;5092645;28;20266;-74
2023/12/14 00:26:27;;;;;;;12.43;8.15;;;;;;;-142.91;100.00;56616.03;5092798;28;20233;-73
2023/12/14 00:28:54;;;;;;;11.10;8.73;;;;;;;-142.91;100.00;56616.03;5092153;28;20655;-74
2023/12/14 00:31:20;;;;;;;12.13;8.57;;;;;;;-142.91;100.00;56616.03;5092024;28;20282;-74
2023/12/14 00:33:48;;;;;;;16.13;9.65;;;;;;;-142.91;100.00;56616.03;5091238;28;20595;-73
2023/12/14 00:36:19;;;;;;;19.25;12.30;;;;;;;-142.91;100.00;56616.03;5091922;28;20205;-74
2023/12/14 00:38:46;;;;;;;22.83;13.93;;;;;;;-142.91;100.00;56616.03;5091324;28;20229;-74
2023/12/14 00:41:12;;;;;;;26.50;14.32;;;;;;;;;;5092155;28;20237;-75
2023/12/14 00:43:39;;;;;;;29.63;15.73;;;;;;;-142.91;100.00;56616.03;5085607;28;20272;-74
2023/12/14 00:46:05;;;;;;;30.13;17.05;;;;;;;-142.91;100.00;56616.03;5088325;28;20282;-74
2023/12/14 00:48:32;;;;;;;25.95;16.08;;;;;;;-142.91;100.00;56616.03;5090561;28;20267;-74
2023/12/14 00:51:00;;;;;;;27.05;15.93;;;;;;;-142.91;100.00;56616.03;5092143;28;20233;-74
2023/12/14 00:53:27;;;;;;;33.65;17.60;;;;;;;-142.91;100.00;56616.03;5091093;28;20277;-74
2023/12/14 00:55:53;;;;;;;28.60;16.60;;;;;;;-142.91;100.00;56616.03;5091771;28;20240;-74
2023/12/14 00:58:20;;;;;;;32.40;19.02;;;;;;;;;;5091029;28;20650;-74
2023/12/14 01:00:47;;;;;;;30.98;16.88;;;;;;;-142.91;100.00;56616.03;5091224;28;20201;-74
2023/12/14 01:03:13;;;;;;;39.40;19.70;;;;;;;;;;5088809;28;20257;-73
2023/12/14 01:05:40;;;;;;;39.40;18.90;;;;;;;-142.91;100.00;56616.03;5090072;28;20659;-76
2023/12/14 01:08:08;;;;;;;36.20;20.08;;;;;;;-142.91;100.00;56616.03;5088783;28;20659;-75
2023/12/14 01:10:36;;;;;;;30.52;18.10;;;;;;;-142.91;100.00;56616.03;5089149;28;20686;-75
2023/12/14 01:13:02;;;;;;;30.90;18.90;;;;;;;-142.91;100.00;56616.03;5076448;28;20695;-75
2023/12/14 01:15:29;;;;;;;28.05;16.60;;;;;;;-142.91;100.00;56616.03;5076916;28;20747;-75
2023/12/14 01:17:56;;;;;;;30.17;16.90;;;;;;;-142.91;100.00;56616.03;5082925;28;20212;-75
2023/12/14 01:20:23;;;;;;;23.25;14.07;;;;;;;-142.91;100.00;56616.03;5087991;28;20734;-76
2023/12/14 01:22:50;;;;;;;22.92;15.05;;;;;;;-142.91;100.00;56616.03;5088863;28;20597;-75
2023/12/14 01:25:18;;;;;;;27.20;15.73;;;;;;;-142.91;100.00;56616.03;5089864;28;20296;-75
2023/12/14 01:27:44;;;;;;;26.27;15.02;;;;;;;-142.91;100.00;56616.03;5090413;28;20256;-75
2023/12/14 01:30:12;;;;;;;24.25;14.90;;;;;;;-142.91;100.00;56616.03;5089495;28;20229;-73
2023/12/14 01:32:38;;;;;;;21.25;14.30;;;;;;;-142.91;100.00;56616.03;5089509;28;20301;-76
2023/12/14 01:35:05;;;;;;;21.80;13.73;;;;;;;;;;5089339;28;20284;-75
2023/12/14 01:37:32;;;;;;;23.33;14.20;;;;;;;-142.91;100.00;56616.03;5090598;28;20280;-76
2023/12/14 01:39:58;;;;;;;20.42;14.30;;;;;;;-142.91;100.00;56616.03;5089219;28;20284;-75
2023/12/14 01:42:27;;;;;;;20.20;11.85;;;;;;;-142.91;100.00;56616.03;5080861;28;20312;-75
2023/12/14 01:44:53;;;;;;;18.05;12.32;;;;;;;-142.91;100.00;56616.03;5087602;28;20208;-75
2023/12/14 01:47:20;;;;;;;19.98;11.98;;;;;;;-142.91;100.00;56616.03;5074887;28;20317;-76
2023/12/14 01:49:46;;;;;;;15.63;11.93;;;;;;;-142.91;100.00;56616.03;5087242;28;20670;-76
2023/12/14 01:52:13;;;;;;;18.10;11.70;;;;;;;-142.91;100.00;56616.03;5078181;28;20292;-76
2023/12/14 01:54:39;;;;;;;24.17;13.93;;;;;;;-142.91;100.00;56616.03;5088982;28;20547;-75
2023/12/14 01:57:06;;;;;;;25.00;15.73;;;;;;;-142.91;100.00;56616.03;5084940;28;20284;-76
2023/12/14 01:59:34;;;;;;;28.42;16.25;;;;;;;-142.91;100.00;56616.03;5088364;28;20270;-75
2023/12/14 02:02:02;;;;;;;25.35;15.50;;;;;;;-142.91;100.00;56616.03;5088786;28;20742;-76
2023/12/14 02:04:30;;;;;;;24.45;15.95;;;;;;;-142.91;100.00;56616.03;5088022;28;20206;-76
2023/12/14 02:06:57;;;;;;;22.23;15.65;;;;;;;-142.91;100.00;56616.03;5089665;28;20209;-75
2023/12/14 02:09:23;;;;;;;27.48;17.23;;;;;;;;;;5088737;28;20206;-75
2023/12/14 02:11:51;;;;;;;29.63;17.40;;;;;;;-142.91;100.00;56616.03;5084755;28;20230;-76
2023/12/14 02:14:17;;;;;;;29.52;16.52;;;;;;;;;;5085233;28;20763;-76
2023/12/14 02:16:45;;;;;;;24.15;15.15;;;;;;;;;;5088435;28;20237;-75
2023/12/14 02:19:12;;;;;;;31.05;16.33;;;;;;;-142.91;100.00;56616.03;5087030;28;20293;-74
2023/12/14 02:21:38;;;;;;;24.00;14.85;;;;;;;;;;5088454;28;20240;-75
2023/12/14 02:24:06;;;;;;;23.27;14.30;;;;;;;-142.91;100.00;56616.03;5088233;28;20496;-73
2023/12/14 02:26:33;;;;;;;23.17;15.07;;;;;;;;;;5088475;28;20288;-74
2023/12/14 02:28:59;;;;;;;22.38;16.00;;;;;;;-142.91;100.00;56616.03;5088180;28;20311;-75
2023/12/14 02:31:26;;;;;;;21.13;13.93;;;;;;;-142.91;100.00;56616.03;5088396;28;20225;-76
2023/12/14 02:33:53;;;;;;;24.35;14.82;;;;;;;-142.91;100.00;56616.03;5085998;28;20677;-74
2023/12/14 02:36:19;;;;;;;23.50;14.90;;;;;;;;;;5085099;28;20679;-75
2023/12/14 02:38:46;;;;;;;20.13;13.50;;;;;;;-142.91;100.00;56616.03;5086984;28;20225;-75
2023/12/14 02:41:14;;;;;;;26.38;14.60;;;;;;;-142.91;100.00;56616.03;5080774;28;20292;-75
2023/12/14 02:43:41;;;;;;;26.80;15.75;;;;;;;-142.91;100.00;56616.03;5087814;28;20310;-75
2023/12/14 02:46:07;;;;;;;27.15;15.95;;;;;;;-142.91;100.00;56616.03;5082874;28;20668;-75
2023/12/14 02:48:34;;;;;;;28.38;17.05;;;;;;;-142.91;100.00;56616.03;5074520;28;20288;-75
2023/12/14 02:51:00;;;;;;;24.25;16.70;;;;;;;;;;5101341;28;20284;-75
2023/12/14 02:53:27;;;;;;;20.38;14.25;;;;;;;-142.91;100.00;56616.03;5090831;28;20613;-75
2023/12/14 02:55:54;;;;;;;23.77;14.90;;;;;;;-142.91;100.00;56616.03;5078212;28;20687;-75
2023/12/14 02:58:23;;;;;;;20.27;14.20;;;;;;;-142.91;100.00;56616.03;5088659;28;20284;-75
2023/12/14 03:00:50;;;;;;;23.13;14.95;;;;;;;-142.91;100.00;56616.03;5089455;28;20289;-75
2023/12/14 03:03:16;;;;;;;26.23;15.57;;;;;;;-142.91;100.00;56616.03;5092321;28;20249;-74
2023/12/14 03:05:43;;;;;;;22.63;15.75;;;;;;;;;;5090804;28;20692;-75
2023/12/14 03:08:09;;;;;;;24.67;16.33;;;;;;;-142.91;100.00;56616.03;5089855;28;20296;-75
2023/12/14 03:10:38;;;;;;;23.92;16.50;;;;;;;;;;5093660;28;20308;-75
2023/12/14 03:13:05;;;;;;;30.65;15.82;;;;;;;-142.91;100.00;56616.03;5092816;28;20614;-76
2023/12/14 03:15:32;;;;;;;22.92;15.95;;;;;;;;;;5090842;28;20284;-75
2023/12/14 03:17:59;;;;;;;25.38;15.95;;;;;;;-142.91;100.00;56616.03;5083394;28;20284;-73
2023/12/14 03:20:26;;;;;;;22.20;14.70;;;;;;;-142.91;100.00;56616.03;5092984;28;20289;-74
2023/12/14 03:22:52;;;;;;;23.83;14.95;;;;;;;-142.91;100.00;56616.03;5092084;28;20301;-74
2023/12/14 03:25:19;;;;;;;23.45;15.45;;;;;;;-142.91;100.00;56616.03;5091494;28;20773;-75
2023/12/14 03:27:45;;;;;;;20.63;14.25;;;;;;;-142.91;100.00;56616.03;5078728;28;20229;-75
2023/12/14 03:30:12;;;;;;;21.95;14.43;;;;;;;-142.91;100.00;56616.03;5078759;28;20324;-75
2023/12/14 03:32:40;;;;;;;20.00;12.73;;;;;;;;;;5089228;28;20685;-74
2023/12/14 03:35:08;;;;;;;18.88;13.82;;;;;;;-142.91;100.00;56616.03;5089202;28;20206;-75
2023/12/14 03:37:35;;;;;;;21.20;13.93;;;;;;;-142.91;100.00;56616.03;5091609;28;20277;-75
2023/12/14 03:40:02;;;;;;;26.30;15.27;;;;;;;-142.91;100.00;56616.03;5091887;28;20278;-75
2023/12/14 03:42:28;;;;;;;24.67;15.73;;;;;;;-142.91;100.00;56616.03;5091753;28;20641;-75
2023/12/14 03:44:55;;;;;;;20.77;14.88;;;;;;;-142.91;100.00;56616.03;5091896;28;20289;-75
2023/12/14 03:47:22;;;;;;;20.30;13.18;;;;;;;-142.91;100.00;56616.03;5091696;28;20293;-75
2023/12/14 03:49:50;;;;;;;20.85;12.90;;;;;;;-142.91;100.00;56616.03;5088126;28;20585;-75
2023/12/14 03:52:16;;;;;;;17.15;12.88;;;;;;;-142.91;100.00;56616.03;5083841;28;20212;-76
2023/12/14 03:54:43;;;;;;;17.15;12.50;;;;;;;;;;5091680;28;20763;-75
2023/12/14 03:57:09;;;;;;;18.08;12.65;;;;;;;-142.91;100.00;56616.03;5081475;28;20298;-76
2023/12/14 03:59:39;;;;;;;16.33;12.35;;;;;;;;;;5079940;28;20667;-75
2023/12/14 04:02:06;;;;;;;17.20;11.95;;;;;;;-142.91;100.00;56616.03;5091499;28;20303;-75
2023/12/14 04:04:32;;;;;;;19.40;12.70;;;;;;;;;;5089830;28;20289;-75
2023/12/14 04:07:00;;;;;;;16.92;12.73;;;;;;;-142.91;100.00;56616.03;5089325;28;20592;-76
2023/12/14 04:09:27;;;;;;;17.50;11.73;;;;;;;-142.91;100.00;56616.03;5091421;28;20240;-76
2023/12/14 04:11:53;;;;;;;20.50;12.30;;;;;;;-142.91;100.00;56616.03;5091214;28;20333;-76
2023/12/14 04:14:20;;;;;;;16.05;12.05;;;;;;;-142.91;100.00;56616.03;5090793;28;20258;-76
2023/12/14 04:16:46;;;;;;;17.05;12.15;;;;;;;;;;5090679;28;20324;-76
2023/12/14 04:19:13;;;;;;;15.95;11.80;;;;;;;-142.91;100.00;56616.03;5091336;28;20289;-76
2023/12/14 04:21:40;;;;;;;15.55;11.38;;;;;;;-142.91;100.00;56616.03;5092469;28;20255;-76
2023/12/14 04:24:09;;;;;;;17.70;11.40;;;;;;;-142.91;100.00;56616.03;5092480;28;20244;-76
2023/12/14 04:26:36;;;;;;;17.60;11.68;;;;;;;-142.91;100.00;56616.03;5080171;28;20281;-76
2023/12/14 04:29:02;;;;;;;22.95;12.73;;;;;;;-142.91;100.00;56616.03;5092315;28;20198;-77
2023/12/14 04:31:29;;;;;;;18.25;12.43;;;;;;;-142.91;100.00;56616.03;5090283;28;20656;-76
2023/12/14 04:33:55;;;;;;;17.42;11.07;;;;;;;-142.91;100.00;56616.03;5090180;28;20618;-76
2023/12/14 04:36:22;;;;;;;14.75;11.00;;;;;;;-142.91;100.00;56616.03;5078452;28;20260;-76
2023/12/14 04:38:49;;;;;;;18.27;11.13;;;;;;;-142.91;100.00;56616.03;5082441;28;20240;-76
2023/12/14 04:41:17;;;;;;;14.85;11.18;;;;;;;-142.91;100.00;56616.03;5089221;28;20229;-75
2023/12/14 04:43:43;;;;;;;20.08;12.02;;;;;;;-142.91;100.00;56616.03;5084076;28;20305;-75
2023/12/14 04:46:10;;;;;;;14.95;9.95;;;;;;;-142.91;100.00;56616.03;5086719;28;20642;-76
2023/12/14 04:48:37;;;;;;;25.52;15.40;;;;;;;-142.91;100.00;56616.03;5090974;28;20297;-76
2023/12/14 04:51:04;;;;;;;13.00;9.57;;;;;;;-142.91;100.00;56616.03;5090163;28;20826;-75
2023/12/14 04:53:30;;;;;;;17.60;11.50;;;;;;;;;;5090773;28;20285;-75
2023/12/14 04:55:57;;;;;;;24.13;15.13;;;;;;;-142.91;100.00;56616.03;5091506;28;20232;-77
2023/12/14 04:58:25;;;;;;;12.98;10.52;;;;;;;-142.91;100.00;56616.03;5092419;28;20259;-75
2023/12/14 05:00:52;;;;;;;14.85;11.07;;;;;;;-142.91;100.00;56616.03;5079355;28;20240;-76
2023/12/14 05:03:18;;;;;;;20.35;11.15;;;;;;;-142.91;100.00;56616.03;5091507;28;20775;-75
2023/12/14 05:05:45;;;;;;;25.45;11.90;;;;;;;-142.91;100.00;56616.03;5093551;28;20233;-74
2023/12/14 05:08:11;;;;;;;18.63;12.20;;;;;;;-142.91;100.00;56616.03;5094809;28;20627;-75
2023/12/14 05:10:38;;;;;;;20.30;12.45;;;;;;;-142.91;100.00;56616.03;5090969;28;20317;-76
2023/12/14 05:13:06;;;;;;;15.60;11.52;;;;;;;-142.91;100.00;56616.03;5083505;28;20190;-77
2023/12/14 05:15:35;;;;;;;25.65;12.13;;;;;;;-142.91;100.00;56616.03;5090859;28;20631;-75
2023/12/14 05:18:01;;;;;;;22.70;13.40;;;;;;;-142.91;100.00;56616.03;5090691;28;20229;-76
2023/12/14 05:20:28;;;;;;;26.15;12.70;;;;;;;-142.91;100.00;56616.03;5089753;28;20244;-77
2023/12/14 05:22:55;;;;;;;19.45;11.15;;;;;;;-142.91;100.00;56616.03;5089379;28;20202;-77
2023/12/14 05:25:21;;;;;;;19.58;11.80;;;;;;;-142.91;100.00;56616.03;5089704;28;20260;-76
2023/12/14 05:27:48;;;;;;;18.08;11.35;;;;;;;-142.91;100.00;56616.03;5089800;28;20194;-75
2023/12/14 05:30:15;;;;;;;21.10;12.93;;;;;;;-142.91;100.00;56616.03;5090139;28;20198;-75
2023/12/14 05:32:43;;;;;;;19.95;12.02;;;;;;;-142.91;100.00;56616.03;5090358;28;20312;-76
2023/12/14 05:35:10;;;;;;;21.63;12.82;;;;;;;-142.91;100.00;56616.03;5090264;28;20277;-75
2023/12/14 05:37:37;;;;;;;18.48;12.88;;;;;;;-142.91;100.00;56616.03;5091833;28;20194;-75
2023/12/14 05:40:04;;;;;;;30.42;15.50;;;;;;;-142.91;100.00;56616.03;5090683;28;20245;-76
2023/12/14 05:42:31;;;;;;;27.48;17.85;;;;;;;-142.91;100.00;56616.03;5090114;28;20213;-74
2023/12/14 05:44:57;;;;;;;26.63;16.70;;;;;;;-142.91;100.00;56616.03;5089525;28;20244;-76
2023/12/14 05:47:25;;;;;;;26.27;16.42;;;;;;;-142.91;100.00;56616.03;5091334;28;20205;-75
2023/12/14 05:49:53;;;;;;;25.38;15.63;;;;;;;-142.91;100.00;56616.03;5088277;28;20205;-75
2023/12/14 05:52:19;;;;;;;29.27;16.08;;;;;;;-142.91;100.00;56616.03;5078433;28;20298;-76
2023/12/14 05:54:46;;;;;;;30.02;18.42;;;;;;;-142.91;100.00;56616.03;5087597;28;20505;-76
2023/12/14 05:57:12;;;;;;;28.75;17.67;;;;;;;;;;5089332;28;20254;-75
2023/12/14 05:59:39;;;;;;;32.45;18.10;;;;;;;-142.91;100.00;56616.03;5088968;28;20202;-75
2023/12/14 06:02:06;;;;;;;30.98;17.45;;;;;;;-142.91;100.00;56616.03;5088929;28;20663;-75
2023/12/14 06:04:33;;;;;;;22.50;14.50;;;;;;;-142.91;100.00;56616.03;5088122;28;20205;-75
2023/12/14 06:07:01;;;;;;;50.50;20.27;;;;;;;;;;5089541;28;20232;-75
2023/12/14 06:09:33;;;;;;;33.65;19.88;;;;;;;-142.91;100.00;56616.03;5091303;28;20647;-75
2023/12/14 06:12:00;;;;;;;32.78;20.30;;;;;;;-142.91;100.00;56616.03;5090836;28;20246;-76
2023/12/14 06:14:27;;;;;;;31.73;19.83;;;;;;;-142.91;100.00;56616.03;5079488;28;20198;-77
2023/12/14 06:16:54;;;;;;;38.03;21.23;;;;;;;-142.91;100.00;56616.03;5090124;28;20229;-76
2023/12/14 06:19:20;;;;;;;36.42;22.83;;;;;;;-142.91;100.00;56616.03;5088812;28;20641;-76
2023/12/14 06:21:47;;;;;;;46.80;24.55;;;;;;;-142.91;100.00;56616.03;5088685;28;20237;-76
2023/12/14 06:24:15;;;;;;;39.53;21.77;;;;;;;-142.91;100.00;56616.03;5089092;28;20217;-76
2023/12/14 06:26:42;;;;;;;40.80;21.20;;;;;;;-142.91;100.00;56616.03;5088620;28;20233;-77
2023/12/14 06:29:10;;;;;;;33.22;19.38;;;;;;;-142.91;100.00;56616.03;5081056;28;20198;-76
2023/12/14 06:31:36;;;;;;;35.83;20.40;;;;;;;-142.91;100.00;56616.03;5083277;28;20263;-76
2023/12/14 06:34:04;;;;;;;30.25;19.33;;;;;;;-142.91;100.00;56616.03;5087919;28;20280;-76
2023/12/14 06:36:30;;;;;;;38.85;19.13;;;;;;;-142.91;100.00;56616.03;5088078;28;20235;-76
2023/12/14 06:38:57;;;;;;;31.80;20.38;;;;;;;-142.91;100.00;56616.03;5092380;28;20293;-76
2023/12/14 06:41:27;;;;;;;32.85;18.08;;;;;;;-142.91;100.00;56616.03;5092460;28;20280;-76
2023/12/14 06:43:54;;;;;;;34.33;17.35;;;;;;;-142.91;100.00;56616.03;5094653;28;20236;-76
2023/12/14 06:46:21;;;;;;;28.98;17.70;;;;;;;-142.91;100.00;56616.03;5096295;28;20244;-75
2023/12/14 06:48:48;;;;;;;24.02;15.38;;;;;;;;;;5102764;28;20741;-75
2023/12/14 06:51:15;;;;;;;29.20;15.25;;;;;;;-142.91;100.00;56616.03;5080633;28;20278;-75
2023/12/14 06:53:43;;;;;;;29.05;15.75;;;;;;;-142.91;100.00;56616.03;5094035;28;20201;-74
2023/12/14 06:56:10;;;;;;;26.38;14.60;;;;;;;;;;5094141;28;20224;-75
2023/12/14 06:58:40;;;;;;;22.52;14.43;;;;;;;-142.91;100.00;56616.03;5094356;28;20285;-75
2023/12/14 07:01:07;;;;;;;24.15;15.98;;;;;;;-142.91;100.00;56616.03;5093595;28;20705;-77
2023/12/14 07:03:34;;;;;;;23.33;14.40;;;;;;;-142.91;100.00;56616.03;5094316;28;20658;-76
2023/12/14 07:06:00;;;;;;;21.88;14.77;;;;;;;;;;5076580;28;20650;-75
2023/12/14 07:08:27;;;;;;;21.05;13.10;;;;;;;-142.91;100.00;56616.03;5085798;28;20306;-75
2023/12/14 07:10:53;;;;;;;22.52;12.60;;;;;;;-142.91;100.00;56616.03;5093544;28;20684;-76
2023/12/14 07:13:20;;;;;;;21.48;11.88;;;;;;;-142.91;100.00;56616.03;5085548;28;20948;-73
2023/12/14 07:15:48;;;;;;;27.63;12.48;;;;;;;-142.91;100.00;56616.03;5093723;28;20193;-75
2023/12/14 07:18:23;;;;;;;21.83;11.85;;;;;;;-142.91;100.00;56616.03;5082596;28;20230;-76
2023/12/14 07:20:50;;;;;;;18.52;11.82;;;;;;;-142.91;100.00;56616.03;5087317;28;20566;-76
2023/12/14 07:23:16;;;;;;;18.83;12.38;;;;;;;;;;5083957;28;20234;-75
2023/12/14 07:25:57;;;;;;;17.30;11.93;;;;;;;-142.91;100.00;56616.03;5093930;28;20280;-79
2023/12/14 07:28:23;;;;;;;33.75;13.55;;;;;;;;;;5092306;28;20205;-76
2023/12/14 07:30:53;;;;;;;17.90;12.02;;;;;;;-142.91;100.00;56616.03;5092542;28;20304;-76
2023/12/14 07:33:20;;;;;;;22.08;13.43;;;;;;;-142.91;100.00;56616.03;5078981;28;20253;-76
2023/12/14 07:35:46;;;;;;;18.85;11.95;;;;;;;-142.91;100.00;56616.03;5092160;28;20240;-77
2023/12/14 07:38:13;;;;;;;17.88;11.10;;;;;;;;;;5088748;28;21277;-77
2023/12/14 07:40:41;;;;;;;23.60;11.23;;;;;;;-142.91;100.00;56616.03;5082080;28;20656;-76
2023/12/14 07:43:09;;;;;;;20.25;11.93;;;;;;;;;;5078669;28;20201;-76
2023/12/14 07:45:35;;;;;;;17.73;11.15;;;;;;;;;;5091929;28;20230;-75
2023/12/14 07:48:04;;;;;;;21.35;12.18;;;;;;;;;;5092423;28;20701;-76
2023/12/14 07:50:31;;;;;;;29.20;11.57;;;;;;;-142.91;100.00;56616.03;5091995;28;20322;-77
2023/12/14 07:52:57;;;;;;;22.65;13.02;;;;;;;;;;5087699;28;20759;-76
2023/12/14 07:55:24;;;;;;;19.45;14.00;;;;;;;-142.91;100.00;56616.03;5082939;28;20401;-75
2023/12/14 07:57:51;;;;;;;21.38;13.20;;;;;;;-142.91;100.00;56616.03;5090627;28;20245;-77
2023/12/14 08:00:18;;;;;;;19.98;12.52;;;;;;;;;;5091390;28;20778;-76
2023/12/14 08:02:44;;;;;;;17.38;12.23;;;;;;;;;;5088993;28;20580;-75
2023/12/14 08:05:12;;;;;;;15.07;12.00;;;;;;;;;;5091170;28;20317;-76
2023/12/14 08:07:38;;;;;;;22.85;13.02;;;;;;;-142.91;100.00;56616.03;5079316;28;20277;-75
2023/12/14 08:10:05;;;;;;;16.75;9.98;;;;;;;;;;5089707;28;20757;-75
2023/12/14 08:12:32;;;;;;;20.88;11.73;;;;;;;;;;5089458;28;20236;-77
2023/12/14 08:14:58;;;;;;;13.10;10.15;;;;;;;;;;5075729;28;20209;-76
2023/12/14 08:17:26;;;;;;;16.77;11.30;;;;;;;;;;5090019;28;20670;-75
2023/12/14 08:19:52;;;;;;;14.65;11.05;;;;;;;;;;5063149;28;20205;-75
2023/12/14 08:22:21;;;;;;;17.67;10.27;;;;;;;;;;5077566;28;20198;-76
2023/12/14 08:24:48;;;;;;;21.10;10.88;;;;;;;;;;5091597;28;20212;-74
2023/12/14 08:27:15;;;;;;;16.27;10.68;;;;;;;;;;5090029;28;20289;-75
2023/12/14 08:29:41;;;;;;;14.55;12.05;;;;;;;;;;5082838;28;20284;-74
2023/12/14 08:32:08;;;;;;;16.83;11.30;;;;;;;-142.91;100.00;56616.03;5085053;28;20225;-76
2023/12/14 08:34:34;;;;;;;21.88;11.23;;;;;;;-142.91;100.00;56616.03;5081477;28;20293;-75
2023/12/14 08:37:01;;;;;;;20.27;10.75;;;;;;;;;;5081902;28;20389;-75
2023/12/14 08:39:29;;;;;;;16.52;10.80;;;;;;;;;;5078204;28;20273;-75
2023/12/14 08:41:55;;;;;;;14.55;10.30;;;;;;;;;;5093236;28;20281;-76
2023/12/14 08:44:22;;;;;;;19.48;11.43;;;;;;;;;;5092890;28;20742;-74
2023/12/14 08:46:49;;;;;;;18.20;9.65;;;;;;;;;;5088565;28;20204;-75
2023/12/14 08:49:15;;;;;;;18.65;10.80;;;;;;;;;;5084128;28;20735;-76
2023/12/14 08:51:43;;;;;;;18.08;11.32;;;;;;;-142.91;100.00;56616.03;5083312;28;20209;-77
2023/12/14 08:54:09;;;;;;;28.80;10.80;;;;;;;-142.91;100.00;56616.03;5082260;28;20298;-75
2023/12/14 08:56:37;;;;;;;20.92;10.75;;;;;;;;;;5093231;28;20219;-75
2023/12/14 08:59:04;;;;;;;30.95;10.98;;;;;;;;;;5091176;28;20292;-75
2023/12/14 09:01:31;;;;;;;22.42;10.88;;;;;;;;;;5082035;28;20213;-75
2023/12/14 09:03:57;;;;;;;15.30;9.30;;;;;;;-142.91;100.00;56616.03;5092288;28;20205;-75
2023/12/14 09:06:23;;;;;;;14.40;10.18;;;;;;;;;;5090041;28;20308;-76
2023/12/14 09:08:50;;;;;;;15.80;8.50;;;;;;;;;;5086355;28;20296;-76
2023/12/14 09:11:17;;;;;;;17.70;8.38;;;;;;;-142.91;100.00;56616.03;5083170;28;20704;-75
2023/12/14 09:13:44;;;;;;;18.27;9.30;;;;;;;-142.91;100.00;56616.03;5085567;28;20280;-75
2023/12/14 09:16:13;;;;;;;17.85;9.57;;;;;;;;;;5091950;28;20280;-77
2023/12/14 09:18:40;;;;;;;23.60;10.38;;;;;;;;;;5088167;28;20197;-77
2023/12/14 09:21:06;;;;;;;17.20;9.13;;;;;;;-142.91;100.00;56616.03;5082703;28;20301;-82
2023/12/14 09:23:33;;;;;;;9.90;8.00;;;;;;;-142.91;100.00;56616.03;5090904;28;20189;-79
2023/12/14 09:26:00;;;;;;;16.40;8.05;;;;;;;-142.91;100.00;56616.03;5088169;28;20301;-75
2023/12/14 09:28:26;;;;;;;15.77;8.48;;;;;;;;;;5083273;28;20197;-75
2023/12/14 09:30:54;;;;;;;15.32;9.35;;;;;;;-142.91;100.00;56616.03;5086830;28;20286;-74
2023/12/14 09:33:21;;;;;;;14.45;9.60;;;;;;;;;;5085865;28;20320;-74
2023/12/14 09:35:47;;;;;;;16.98;8.43;;;;;;;;;;5086485;28;20854;-75
2023/12/14 09:38:17;;;;;;;14.25;8.70;;;;;;;-142.91;100.00;56616.03;5081222;28;20277;-77
2023/12/14 09:40:44;;;;;;;24.10;8.50;;;;;;;;;;5078938;28;20692;-76
2023/12/14 09:43:11;;;;;;;19.67;9.13;;;;;;;-142.91;100.00;56616.03;5081449;28;20283;-77
2023/12/14 09:45:44;;;;;;;14.57;9.00;;;;;;;-142.91;100.00;56616.03;5081264;28;20212;-76
2023/12/14 09:48:13;;;;;;;17.60;8.55;;;;;;;-142.91;100.00;56616.03;5089380;28;20725;-77
2023/12/14 09:50:41;;;;;;;24.70;12.82;;;;;;;-142.91;100.00;56616.03;5089056;28;20201;-77
2023/12/14 09:53:08;;;;;;;35.92;18.85;;;;;;;-142.91;100.00;56616.03;5084882;28;20224;-76
2023/12/14 09:55:34;;;;;;;36.17;20.25;;;;;;;;;;5081889;28;20190;-75
2023/12/14 09:58:02;;;;;;;27.20;17.92;;;;;;;-142.91;100.00;56616.03;5102658;28;20228;-75
2023/12/14 10:00:35;;;;;;;34.80;16.27;;;;;;;;;;5089462;28;20607;-76
2023/12/14 10:06:03;;;;;;;38.03;17.30;;;;;;;-142.91;100.00;56616.03;5099015;28;20641;-76
2023/12/14 10:08:29;;;;;;;33.28;16.20;;;;;;;-142.91;100.00;56616.03;5084522;28;20289;-76
2023/12/14 10:10:56;;;;;;;43.35;15.50;;;;;;;-142.91;100.00;56616.03;5083591;28;20281;-76
2023/12/14 10:13:37;;;;;;;28.42;15.50;;;;;;;-142.91;100.00;56616.03;5085866;28;20233;-76
2023/12/14 10:16:04;;;;;;;40.67;15.32;;;;;;;-142.91;100.00;56616.03;5079263;28;20281;-77
2023/12/14 10:18:34;;;;;;;39.83;16.63;;;;;;;-142.91;100.00;56616.03;5077488;28;20233;-75
2023/12/14 10:21:04;;;;;;;33.97;17.58;;;;;;;-142.91;100.00;56616.03;5074079;28;20205;-76
2023/12/14 10:23:32;;;;;;;24.50;15.55;;;;;;;-142.91;100.00;56616.03;5083419;28;20267;-76
2023/12/14 10:25:58;;;;;;;35.05;14.43;;;;;;;-142.91;100.00;56616.03;5077851;28;20218;-77
2023/12/14 10:28:25;;;;;;;24.40;14.02;;;;;;;;;;5079299;28;20663;-75
2023/12/14 10:30:53;;;;;;;20.20;12.70;;;;;;;-142.91;100.00;56616.03;5085623;28;20202;-75
2023/12/14 10:33:20;;;;;;;23.55;12.40;;;;;;;-142.91;100.00;56616.03;5083096;28;21044;-76
2023/12/14 10:35:47;;;;;;;16.80;10.95;;;;;;;;;;5076589;28;20684;-75
2023/12/14 10:38:18;;;;;;;17.55;10.05;;;;;;;-142.91;100.00;56616.03;5080833;28;21233;-75
2023/12/14 10:40:46;;;;;;;17.23;9.07;;;;;;;-142.91;100.00;56616.03;5085531;28;20202;-75
2023/12/14 10:43:15;;;;;;;17.10;8.75;;;;;;;-142.91;100.00;56616.03;5083938;28;20663;-76
2023/12/14 10:45:44;;;;;;;11.00;9.10;;;;;;;-142.91;100.00;56616.03;5085237;28;20267;-74
2023/12/14 10:48:13;;;;;;;9.50;7.60;;;;;;;-142.91;100.00;56616.03;5064920;28;20226;-75
2023/12/14 10:50:39;;;;;;;10.23;7.95;;;;;;;;;;5066070;28;20293;-75
2023/12/14 10:53:06;;;;;;;8.68;7.68;;;;;;;;;;5065565;28;20226;-77
2023/12/14 10:55:41;;;;;;;8.98;6.55;;;;;;;-142.91;100.00;56616.03;5065980;28;20675;-75
2023/12/14 10:58:10;;;;;;;11.57;5.95;;;;;;;-142.91;100.00;56616.03;5065897;28;20229;-75
2023/12/14 11:00:37;;;;;;;12.38;5.97;;;;;;;-142.91;100.00;56616.03;5065345;28;20246;-75
2023/12/14 11:03:06;;;;;;;11.68;4.18;;;;;;;-142.91;100.00;56616.03;5064954;28;20488;-76
2023/12/14 11:05:34;;;;;;;3.33;3.05;;;;;;;-142.91;100.00;56616.03;5064919;28;20542;-77
2023/12/14 11:08:09;;;;;;;3.70;3.15;;;;;;;-142.91;100.00;56616.03;5054013;28;20234;-76
2023/12/14 11:10:41;;;;;;;3.45;2.95;;;;;;;-142.91;100.00;56616.03;5066750;28;20675;-76
2023/12/14 11:13:12;;;;;;;9.70;2.38;;;;;;;-142.91;100.00;56616.03;5066157;28;20639;-76
2023/12/14 11:15:39;;;;;;;2.45;2.10;;;;;;;-142.91;100.00;56616.03;5061057;28;20215;-75
2023/12/14 11:18:25;;;;;;;4.40;2.15;;;;;;;-142.91;100.00;56616.03;5051444;28;20621;-77
2023/12/14 11:20:52;;;;;;;5.05;2.08;;;;;;;;;;5051228;28;20202;-76
2023/12/14 11:23:29;;;;;;;1.90;1.80;;;;;;;-142.91;100.00;56616.03;5051739;28;20226;-75
2023/12/14 11:25:59;;;;;;;1.63;1.52;;;;;;;-142.91;100.00;56616.03;5040553;28;20222;-77
2023/12/14 11:28:26;;;;;;;1.42;1.35;;;;;;;-142.91;100.00;56616.03;5050535;28;20210;-76
2023/12/14 11:30:53;;;;;;;1.63;1.52;;;;;;;-142.91;100.00;56616.03;5052190;28;20302;-77
2023/12/14 11:33:20;;;;;;;1.55;1.45;;;;;;;-142.91;100.00;56616.03;5051233;28;20302;-75
2023/12/14 11:35:47;;;;;;;1.75;1.65;;;;;;;-142.91;100.00;56616.03;5051365;28;20622;-75
2023/12/14 11:38:13;;;;;;;2.75;1.85;;;;;;;-142.91;100.00;56616.03;5050567;28;20203;-75
2023/12/14 11:40:40;;;;;;;1.10;1.10;;;;;;;-142.91;100.00;56616.03;5052447;28;20207;-74